sensor_id;sensor_type;location;lat;lon;timestamp;P1;durP1;ratioP1;P2;durP2;ratioP2
18883;SDS011;9574;47.282;9.640;2022-11-21T00:01:28;1.43;;;1.33;;
18883;SDS011;9574;47.282;9.640;2022-11-21T00:03:56;1.77;;;1.10;;
18883;SDS011;9574;47.282;9.640;2022-11-21T00:06:24;2.23;;;1.40;;
18883;SDS011;9574;47.282;9.640;2022-11-21T00:08:55;2.43;;;1.53;;
18883;SDS011;9574;47.282;9.640;2022-11-21T00:11:22;1.90;;;1.60;;
18883;SDS011;9574;47.282;9.640;2022-11-21T00:13:50;2.43;;;2.00;;
18883;SDS011;9574;47.282;9.640;2022-11-21T00:16:18;1.63;;;1.53;;
18883;SDS011;9574;47.282;9.640;2022-11-21T00:18:46;2.10;;;1.60;;
18883;SDS011;9574;47.282;9.640;2022-11-21T00:21:15;2.03;;;1.23;;
18883;SDS011;9574;47.282;9.640;2022-11-21T00:23:45;5.63;;;1.70;;
18883;SDS011;9574;47.282;9.640;2022-11-21T00:26:17;1.73;;;1.63;;
18883;SDS011;9574;47.282;9.640;2022-11-21T00:28:47;2.03;;;1.63;;
18883;SDS011;9574;47.282;9.640;2022-11-21T00:31:32;2.27;;;1.60;;
18883;SDS011;9574;47.282;9.640;2022-11-21T00:33:59;3.53;;;2.23;;
18883;SDS011;9574;47.282;9.640;2022-11-21T00:36:30;1.93;;;1.80;;
18883;SDS011;9574;47.282;9.640;2022-11-21T00:38:57;2.23;;;1.90;;
18883;SDS011;9574;47.282;9.640;2022-11-21T00:41:31;3.50;;;1.67;;
18883;SDS011;9574;47.282;9.640;2022-11-21T00:43:58;1.40;;;1.23;;
18883;SDS011;9574;47.282;9.640;2022-11-21T00:46:30;2.50;;;2.10;;
18883;SDS011;9574;47.282;9.640;2022-11-21T00:48:59;2.83;;;1.50;;
18883;SDS011;9574;47.282;9.640;2022-11-21T00:51:28;1.47;;;1.30;;
18883;SDS011;9574;47.282;9.640;2022-11-21T00:53:55;1.53;;;1.43;;
18883;SDS011;9574;47.282;9.640;2022-11-21T00:56:25;2.37;;;2.17;;
18883;SDS011;9574;47.282;9.640;2022-11-21T00:59:00;4.20;;;1.63;;
18883;SDS011;9574;47.282;9.640;2022-11-21T01:01:31;1.73;;;1.47;;
18883;SDS011;9574;47.282;9.640;2022-11-21T01:03:59;2.27;;;1.80;;
18883;SDS011;9574;47.282;9.640;2022-11-21T01:06:27;2.30;;;1.70;;
18883;SDS011;9574;47.282;9.640;2022-11-21T01:08:54;2.20;;;1.60;;
18883;SDS011;9574;47.282;9.640;2022-11-21T01:11:25;1.83;;;1.70;;
18883;SDS011;9574;47.282;9.640;2022-11-21T01:13:54;2.57;;;1.70;;
18883;SDS011;9574;47.282;9.640;2022-11-21T01:16:27;2.57;;;1.97;;
18883;SDS011;9574;47.282;9.640;2022-11-21T01:18:57;1.90;;;1.67;;
18883;SDS011;9574;47.282;9.640;2022-11-21T01:21:26;2.90;;;1.70;;
18883;SDS011;9574;47.282;9.640;2022-11-21T01:24:03;2.40;;;1.67;;
18883;SDS011;9574;47.282;9.640;2022-11-21T01:26:33;3.40;;;2.23;;
18883;SDS011;9574;47.282;9.640;2022-11-21T01:29:05;3.20;;;2.10;;
18883;SDS011;9574;47.282;9.640;2022-11-21T01:31:38;3.60;;;1.80;;
18883;SDS011;9574;47.282;9.640;2022-11-21T01:34:09;2.13;;;1.63;;
18883;SDS011;9574;47.282;9.640;2022-11-21T01:36:40;1.80;;;1.47;;
18883;SDS011;9574;47.282;9.640;2022-11-21T01:39:15;3.07;;;1.50;;
18883;SDS011;9574;47.282;9.640;2022-11-21T01:41:42;3.93;;;1.77;;
18883;SDS011;9574;47.282;9.640;2022-11-21T01:44:18;3.63;;;2.30;;
18883;SDS011;9574;47.282;9.640;2022-11-21T01:46:46;2.90;;;1.80;;
18883;SDS011;9574;47.282;9.640;2022-11-21T01:49:18;2.97;;;2.33;;
18883;SDS011;9574;47.282;9.640;2022-11-21T01:51:47;3.03;;;2.13;;
18883;SDS011;9574;47.282;9.640;2022-11-21T01:54:21;2.43;;;1.80;;
18883;SDS011;9574;47.282;9.640;2022-11-21T01:56:55;1.67;;;1.57;;
18883;SDS011;9574;47.282;9.640;2022-11-21T01:59:33;1.60;;;1.47;;
18883;SDS011;9574;47.282;9.640;2022-11-21T02:02:07;1.73;;;1.43;;
18883;SDS011;9574;47.282;9.640;2022-11-21T02:04:42;2.50;;;1.77;;
18883;SDS011;9574;47.282;9.640;2022-11-21T02:07:13;1.33;;;1.20;;
18883;SDS011;9574;47.282;9.640;2022-11-21T02:09:47;1.73;;;1.63;;
18883;SDS011;9574;47.282;9.640;2022-11-21T02:12:20;1.30;;;1.20;;
18883;SDS011;9574;47.282;9.640;2022-11-21T02:14:54;3.13;;;1.20;;
18883;SDS011;9574;47.282;9.640;2022-11-21T02:17:25;1.20;;;1.10;;
18883;SDS011;9574;47.282;9.640;2022-11-21T02:19:56;1.07;;;1.07;;
18883;SDS011;9574;47.282;9.640;2022-11-21T02:22:31;1.23;;;1.00;;
18883;SDS011;9574;47.282;9.640;2022-11-21T02:25:07;1.30;;;1.00;;
18883;SDS011;9574;47.282;9.640;2022-11-21T02:27:40;2.80;;;1.10;;
18883;SDS011;9574;47.282;9.640;2022-11-21T02:30:09;1.67;;;1.30;;
18883;SDS011;9574;47.282;9.640;2022-11-21T02:32:41;2.50;;;0.90;;
18883;SDS011;9574;47.282;9.640;2022-11-21T02:35:11;1.20;;;0.93;;
18883;SDS011;9574;47.282;9.640;2022-11-21T02:37:40;1.30;;;0.90;;
18883;SDS011;9574;47.282;9.640;2022-11-21T02:40:11;1.20;;;1.10;;
18883;SDS011;9574;47.282;9.640;2022-11-21T02:42:44;1.10;;;1.10;;
18883;SDS011;9574;47.282;9.640;2022-11-21T02:45:22;1.10;;;1.00;;
18883;SDS011;9574;47.282;9.640;2022-11-21T02:47:56;1.07;;;1.00;;
18883;SDS011;9574;47.282;9.640;2022-11-21T02:50:24;1.17;;;1.07;;
18883;SDS011;9574;47.282;9.640;2022-11-21T02:52:53;1.03;;;0.90;;
18883;SDS011;9574;47.282;9.640;2022-11-21T02:55:23;1.60;;;1.20;;
18883;SDS011;9574;47.282;9.640;2022-11-21T02:57:58;1.03;;;0.97;;
18883;SDS011;9574;47.282;9.640;2022-11-21T03:00:28;1.20;;;1.10;;
18883;SDS011;9574;47.282;9.640;2022-11-21T03:03:01;1.13;;;1.03;;
18883;SDS011;9574;47.282;9.640;2022-11-21T03:05:34;1.90;;;1.10;;
18883;SDS011;9574;47.282;9.640;2022-11-21T03:08:03;1.10;;;0.90;;
18883;SDS011;9574;47.282;9.640;2022-11-21T03:10:35;0.80;;;0.80;;
18883;SDS011;9574;47.282;9.640;2022-11-21T03:13:04;1.00;;;0.90;;
18883;SDS011;9574;47.282;9.640;2022-11-21T03:15:32;0.80;;;0.80;;
18883;SDS011;9574;47.282;9.640;2022-11-21T03:18:04;1.20;;;0.97;;
18883;SDS011;9574;47.282;9.640;2022-11-21T03:20:31;1.07;;;0.90;;
18883;SDS011;9574;47.282;9.640;2022-11-21T03:23:00;0.80;;;0.80;;
18883;SDS011;9574;47.282;9.640;2022-11-21T03:25:30;3.77;;;1.40;;
18883;SDS011;9574;47.282;9.640;2022-11-21T03:27:59;1.50;;;1.03;;
18883;SDS011;9574;47.282;9.640;2022-11-21T03:30:26;2.43;;;1.13;;
18883;SDS011;9574;47.282;9.640;2022-11-21T03:32:54;1.47;;;1.00;;
18883;SDS011;9574;47.282;9.640;2022-11-21T03:35:23;1.20;;;1.10;;
18883;SDS011;9574;47.282;9.640;2022-11-21T03:37:53;1.50;;;1.20;;
18883;SDS011;9574;47.282;9.640;2022-11-21T03:40:23;1.47;;;1.10;;
18883;SDS011;9574;47.282;9.640;2022-11-21T03:42:51;1.20;;;1.10;;
18883;SDS011;9574;47.282;9.640;2022-11-21T03:45:24;1.30;;;1.20;;
18883;SDS011;9574;47.282;9.640;2022-11-21T03:47:54;2.20;;;1.10;;
18883;SDS011;9574;47.282;9.640;2022-11-21T03:50:21;1.00;;;1.00;;
18883;SDS011;9574;47.282;9.640;2022-11-21T03:52:49;1.10;;;1.00;;
18883;SDS011;9574;47.282;9.640;2022-11-21T03:55:17;0.93;;;0.93;;
18883;SDS011;9574;47.282;9.640;2022-11-21T03:57:45;0.83;;;0.83;;
18883;SDS011;9574;47.282;9.640;2022-11-21T04:00:22;1.60;;;1.30;;
18883;SDS011;9574;47.282;9.640;2022-11-21T04:02:55;2.10;;;1.43;;
18883;SDS011;9574;47.282;9.640;2022-11-21T04:05:22;1.87;;;1.60;;
18883;SDS011;9574;47.282;9.640;2022-11-21T04:07:51;1.20;;;1.10;;
18883;SDS011;9574;47.282;9.640;2022-11-21T04:10:18;2.80;;;2.20;;
18883;SDS011;9574;47.282;9.640;2022-11-21T04:12:46;1.57;;;1.10;;
18883;SDS011;9574;47.282;9.640;2022-11-21T04:15:17;1.37;;;1.27;;
18883;SDS011;9574;47.282;9.640;2022-11-21T04:17:50;1.10;;;1.00;;
18883;SDS011;9574;47.282;9.640;2022-11-21T04:20:20;1.30;;;1.20;;
18883;SDS011;9574;47.282;9.640;2022-11-21T04:22:46;3.20;;;1.07;;
18883;SDS011;9574;47.282;9.640;2022-11-21T04:25:16;2.13;;;1.07;;
18883;SDS011;9574;47.282;9.640;2022-11-21T04:27:43;1.20;;;1.10;;
18883;SDS011;9574;47.282;9.640;2022-11-21T04:30:11;1.07;;;1.00;;
18883;SDS011;9574;47.282;9.640;2022-11-21T04:32:39;1.57;;;1.10;;
18883;SDS011;9574;47.282;9.640;2022-11-21T04:35:08;1.20;;;1.10;;
18883;SDS011;9574;47.282;9.640;2022-11-21T04:37:38;1.00;;;0.97;;
18883;SDS011;9574;47.282;9.640;2022-11-21T04:40:07;0.90;;;0.90;;
18883;SDS011;9574;47.282;9.640;2022-11-21T04:42:35;1.60;;;1.50;;
18883;SDS011;9574;47.282;9.640;2022-11-21T04:45:03;1.70;;;1.03;;
18883;SDS011;9574;47.282;9.640;2022-11-21T04:47:31;1.30;;;1.20;;
18883;SDS011;9574;47.282;9.640;2022-11-21T04:49:58;1.10;;;1.00;;
18883;SDS011;9574;47.282;9.640;2022-11-21T04:52:26;1.13;;;1.03;;
18883;SDS011;9574;47.282;9.640;2022-11-21T04:54:54;0.97;;;0.97;;
18883;SDS011;9574;47.282;9.640;2022-11-21T04:57:21;2.70;;;1.20;;
18883;SDS011;9574;47.282;9.640;2022-11-21T04:59:52;2.00;;;1.27;;
18883;SDS011;9574;47.282;9.640;2022-11-21T05:02:21;1.93;;;1.23;;
18883;SDS011;9574;47.282;9.640;2022-11-21T05:04:49;0.90;;;0.90;;
18883;SDS011;9574;47.282;9.640;2022-11-21T05:07:16;1.83;;;1.10;;
18883;SDS011;9574;47.282;9.640;2022-11-21T05:09:50;0.90;;;0.90;;
18883;SDS011;9574;47.282;9.640;2022-11-21T05:12:21;1.10;;;1.00;;
18883;SDS011;9574;47.282;9.640;2022-11-21T05:15:05;1.23;;;1.00;;
18883;SDS011;9574;47.282;9.640;2022-11-21T05:17:33;1.33;;;1.17;;
18883;SDS011;9574;47.282;9.640;2022-11-21T05:20:01;1.43;;;1.00;;
18883;SDS011;9574;47.282;9.640;2022-11-21T05:22:28;1.03;;;0.97;;
18883;SDS011;9574;47.282;9.640;2022-11-21T05:25:00;0.83;;;0.83;;
18883;SDS011;9574;47.282;9.640;2022-11-21T05:27:27;1.33;;;1.23;;
18883;SDS011;9574;47.282;9.640;2022-11-21T05:29:54;1.33;;;0.83;;
18883;SDS011;9574;47.282;9.640;2022-11-21T05:32:24;1.00;;;1.00;;
18883;SDS011;9574;47.282;9.640;2022-11-21T05:34:52;1.43;;;1.10;;
18883;SDS011;9574;47.282;9.640;2022-11-21T05:37:19;1.97;;;1.27;;
18883;SDS011;9574;47.282;9.640;2022-11-21T05:39:46;1.30;;;1.20;;
18883;SDS011;9574;47.282;9.640;2022-11-21T05:42:15;1.30;;;1.10;;
18883;SDS011;9574;47.282;9.640;2022-11-21T05:45:01;3.37;;;1.40;;
18883;SDS011;9574;47.282;9.640;2022-11-21T05:47:28;1.97;;;1.20;;
18883;SDS011;9574;47.282;9.640;2022-11-21T05:49:56;1.30;;;1.20;;
18883;SDS011;9574;47.282;9.640;2022-11-21T05:52:23;1.50;;;1.40;;
18883;SDS011;9574;47.282;9.640;2022-11-21T05:54:51;1.70;;;1.50;;
18883;SDS011;9574;47.282;9.640;2022-11-21T05:57:20;1.30;;;1.20;;
18883;SDS011;9574;47.282;9.640;2022-11-21T05:59:49;2.07;;;1.83;;
18883;SDS011;9574;47.282;9.640;2022-11-21T06:02:17;1.67;;;1.23;;
18883;SDS011;9574;47.282;9.640;2022-11-21T06:05:02;1.40;;;1.30;;
18883;SDS011;9574;47.282;9.640;2022-11-21T06:07:29;1.70;;;1.50;;
18883;SDS011;9574;47.282;9.640;2022-11-21T06:09:57;2.90;;;1.43;;
18883;SDS011;9574;47.282;9.640;2022-11-21T06:12:26;2.17;;;1.70;;
18883;SDS011;9574;47.282;9.640;2022-11-21T06:14:54;2.97;;;1.90;;
18883;SDS011;9574;47.282;9.640;2022-11-21T06:17:21;1.97;;;1.80;;
18883;SDS011;9574;47.282;9.640;2022-11-21T06:19:48;2.07;;;1.50;;
18883;SDS011;9574;47.282;9.640;2022-11-21T06:22:17;1.60;;;1.30;;
18883;SDS011;9574;47.282;9.640;2022-11-21T06:24:45;3.37;;;1.97;;
18883;SDS011;9574;47.282;9.640;2022-11-21T06:27:13;4.47;;;2.27;;
18883;SDS011;9574;47.282;9.640;2022-11-21T06:29:44;1.67;;;1.57;;
18883;SDS011;9574;47.282;9.640;2022-11-21T06:32:12;1.90;;;1.70;;
18883;SDS011;9574;47.282;9.640;2022-11-21T06:34:39;5.83;;;1.73;;
18883;SDS011;9574;47.282;9.640;2022-11-21T06:37:07;2.70;;;1.80;;
18883;SDS011;9574;47.282;9.640;2022-11-21T06:39:35;2.53;;;2.33;;
18883;SDS011;9574;47.282;9.640;2022-11-21T06:42:02;4.27;;;2.50;;
18883;SDS011;9574;47.282;9.640;2022-11-21T06:44:29;3.10;;;2.20;;
18883;SDS011;9574;47.282;9.640;2022-11-21T06:46:58;2.50;;;2.00;;
18883;SDS011;9574;47.282;9.640;2022-11-21T06:49:25;3.33;;;1.97;;
18883;SDS011;9574;47.282;9.640;2022-11-21T06:51:54;4.37;;;2.33;;
18883;SDS011;9574;47.282;9.640;2022-11-21T06:54:22;3.07;;;2.23;;
18883;SDS011;9574;47.282;9.640;2022-11-21T06:56:51;4.77;;;3.17;;
18883;SDS011;9574;47.282;9.640;2022-11-21T06:59:22;14.37;;;5.97;;
18883;SDS011;9574;47.282;9.640;2022-11-21T07:01:51;5.77;;;4.17;;
18883;SDS011;9574;47.282;9.640;2022-11-21T07:04:22;7.83;;;4.00;;
18883;SDS011;9574;47.282;9.640;2022-11-21T07:06:50;4.60;;;2.87;;
18883;SDS011;9574;47.282;9.640;2022-11-21T07:09:18;5.10;;;3.33;;
18883;SDS011;9574;47.282;9.640;2022-11-21T07:11:46;7.67;;;3.40;;
18883;SDS011;9574;47.282;9.640;2022-11-21T07:14:16;4.63;;;3.50;;
18883;SDS011;9574;47.282;9.640;2022-11-21T07:16:43;5.57;;;3.30;;
18883;SDS011;9574;47.282;9.640;2022-11-21T07:19:16;4.17;;;2.70;;
18883;SDS011;9574;47.282;9.640;2022-11-21T07:21:48;4.70;;;3.00;;
18883;SDS011;9574;47.282;9.640;2022-11-21T07:24:15;3.80;;;3.03;;
18883;SDS011;9574;47.282;9.640;2022-11-21T07:26:49;6.00;;;3.10;;
18883;SDS011;9574;47.282;9.640;2022-11-21T07:29:19;4.83;;;3.90;;
18883;SDS011;9574;47.282;9.640;2022-11-21T07:31:47;3.80;;;3.10;;
18883;SDS011;9574;47.282;9.640;2022-11-21T07:34:16;10.80;;;5.73;;
18883;SDS011;9574;47.282;9.640;2022-11-21T07:36:46;8.10;;;4.93;;
18883;SDS011;9574;47.282;9.640;2022-11-21T07:39:15;4.87;;;3.90;;
18883;SDS011;9574;47.282;9.640;2022-11-21T07:41:42;6.43;;;3.50;;
18883;SDS011;9574;47.282;9.640;2022-11-21T07:44:11;5.07;;;3.67;;
18883;SDS011;9574;47.282;9.640;2022-11-21T07:46:40;8.47;;;5.37;;
18883;SDS011;9574;47.282;9.640;2022-11-21T07:49:11;6.03;;;3.90;;
18883;SDS011;9574;47.282;9.640;2022-11-21T07:51:41;8.37;;;4.93;;
18883;SDS011;9574;47.282;9.640;2022-11-21T07:54:13;7.03;;;4.37;;
18883;SDS011;9574;47.282;9.640;2022-11-21T07:56:42;3.63;;;2.93;;
18883;SDS011;9574;47.282;9.640;2022-11-21T07:59:17;4.73;;;2.93;;
18883;SDS011;9574;47.282;9.640;2022-11-21T08:01:43;3.50;;;3.10;;
18883;SDS011;9574;47.282;9.640;2022-11-21T08:04:12;6.33;;;3.97;;
18883;SDS011;9574;47.282;9.640;2022-11-21T08:06:39;4.50;;;3.00;;
18883;SDS011;9574;47.282;9.640;2022-11-21T08:09:09;3.97;;;2.40;;
18883;SDS011;9574;47.282;9.640;2022-11-21T08:11:49;5.37;;;3.13;;
18883;SDS011;9574;47.282;9.640;2022-11-21T08:14:18;4.37;;;2.83;;
18883;SDS011;9574;47.282;9.640;2022-11-21T08:16:46;4.13;;;2.80;;
18883;SDS011;9574;47.282;9.640;2022-11-21T08:19:19;4.90;;;3.37;;
18883;SDS011;9574;47.282;9.640;2022-11-21T08:21:50;5.13;;;3.57;;
18883;SDS011;9574;47.282;9.640;2022-11-21T08:24:19;4.30;;;2.90;;
18883;SDS011;9574;47.282;9.640;2022-11-21T08:26:46;6.13;;;3.00;;
18883;SDS011;9574;47.282;9.640;2022-11-21T08:29:16;4.60;;;3.30;;
18883;SDS011;9574;47.282;9.640;2022-11-21T08:31:46;3.00;;;2.40;;
18883;SDS011;9574;47.282;9.640;2022-11-21T08:34:16;2.20;;;2.00;;
18883;SDS011;9574;47.282;9.640;2022-11-21T08:36:46;2.50;;;1.77;;
18883;SDS011;9574;47.282;9.640;2022-11-21T08:39:13;13.90;;;6.03;;
18883;SDS011;9574;47.282;9.640;2022-11-21T08:41:47;13.17;;;5.90;;
18883;SDS011;9574;47.282;9.640;2022-11-21T08:44:33;6.03;;;2.80;;
18883;SDS011;9574;47.282;9.640;2022-11-21T08:47:03;6.67;;;3.20;;
18883;SDS011;9574;47.282;9.640;2022-11-21T08:49:30;6.37;;;3.00;;
18883;SDS011;9574;47.282;9.640;2022-11-21T08:51:57;7.73;;;3.13;;
18883;SDS011;9574;47.282;9.640;2022-11-21T08:54:27;3.90;;;2.60;;
18883;SDS011;9574;47.282;9.640;2022-11-21T08:56:56;4.23;;;2.40;;
18883;SDS011;9574;47.282;9.640;2022-11-21T08:59:27;5.37;;;3.13;;
18883;SDS011;9574;47.282;9.640;2022-11-21T09:01:55;3.57;;;2.80;;
18883;SDS011;9574;47.282;9.640;2022-11-21T09:04:22;4.50;;;2.77;;
18883;SDS011;9574;47.282;9.640;2022-11-21T09:06:50;3.70;;;2.43;;
18883;SDS011;9574;47.282;9.640;2022-11-21T09:09:17;3.33;;;2.70;;
18883;SDS011;9574;47.282;9.640;2022-11-21T09:11:46;3.90;;;2.40;;
18883;SDS011;9574;47.282;9.640;2022-11-21T09:14:15;3.50;;;2.50;;
18883;SDS011;9574;47.282;9.640;2022-11-21T09:17:00;4.93;;;3.53;;
18883;SDS011;9574;47.282;9.640;2022-11-21T09:19:46;4.00;;;2.13;;
18883;SDS011;9574;47.282;9.640;2022-11-21T09:22:13;4.20;;;2.90;;
18883;SDS011;9574;47.282;9.640;2022-11-21T09:24:42;5.13;;;3.17;;
18883;SDS011;9574;47.282;9.640;2022-11-21T09:27:11;5.63;;;2.83;;
18883;SDS011;9574;47.282;9.640;2022-11-21T09:29:40;4.00;;;2.80;;
18883;SDS011;9574;47.282;9.640;2022-11-21T09:32:11;5.90;;;3.30;;
18883;SDS011;9574;47.282;9.640;2022-11-21T09:34:40;3.50;;;2.47;;
18883;SDS011;9574;47.282;9.640;2022-11-21T09:37:09;6.53;;;2.80;;
18883;SDS011;9574;47.282;9.640;2022-11-21T09:39:36;5.07;;;2.80;;
18883;SDS011;9574;47.282;9.640;2022-11-21T09:42:19;7.50;;;2.80;;
18883;SDS011;9574;47.282;9.640;2022-11-21T09:45:06;3.47;;;1.70;;
18883;SDS011;9574;47.282;9.640;2022-11-21T09:47:40;5.23;;;2.20;;
18883;SDS011;9574;47.282;9.640;2022-11-21T09:50:18;3.83;;;2.63;;
18883;SDS011;9574;47.282;9.640;2022-11-21T09:52:52;4.40;;;2.70;;
18883;SDS011;9574;47.282;9.640;2022-11-21T09:55:27;5.03;;;2.90;;
18883;SDS011;9574;47.282;9.640;2022-11-21T09:58:02;3.63;;;2.30;;
18883;SDS011;9574;47.282;9.640;2022-11-21T10:00:37;2.23;;;1.90;;
18883;SDS011;9574;47.282;9.640;2022-11-21T10:03:07;5.10;;;1.80;;
18883;SDS011;9574;47.282;9.640;2022-11-21T10:05:37;2.33;;;1.27;;
18883;SDS011;9574;47.282;9.640;2022-11-21T10:08:12;1.67;;;1.43;;
18883;SDS011;9574;47.282;9.640;2022-11-21T10:10:49;2.23;;;1.40;;
18883;SDS011;9574;47.282;9.640;2022-11-21T10:13:27;3.00;;;1.30;;
18883;SDS011;9574;47.282;9.640;2022-11-21T10:16:05;5.30;;;1.80;;
18883;SDS011;9574;47.282;9.640;2022-11-21T10:18:57;2.17;;;1.60;;
18883;SDS011;9574;47.282;9.640;2022-11-21T10:24:31;2.37;;;1.67;;
18883;SDS011;9574;47.282;9.640;2022-11-21T10:27:09;2.87;;;1.80;;
18883;SDS011;9574;47.282;9.640;2022-11-21T10:29:40;4.23;;;1.57;;
18883;SDS011;9574;47.282;9.640;2022-11-21T10:32:17;1.60;;;1.50;;
18883;SDS011;9574;47.282;9.640;2022-11-21T10:34:49;2.13;;;1.73;;
18883;SDS011;9574;47.282;9.640;2022-11-21T10:37:25;1.53;;;1.43;;
18883;SDS011;9574;47.282;9.640;2022-11-21T10:39:56;1.87;;;1.50;;
18883;SDS011;9574;47.282;9.640;2022-11-21T10:42:37;3.33;;;1.47;;
18883;SDS011;9574;47.282;9.640;2022-11-21T10:45:14;2.00;;;1.73;;
18883;SDS011;9574;47.282;9.640;2022-11-21T10:47:47;2.23;;;1.67;;
18883;SDS011;9574;47.282;9.640;2022-11-21T10:53:09;2.00;;;1.60;;
18883;SDS011;9574;47.282;9.640;2022-11-21T10:56:03;1.70;;;1.10;;
18883;SDS011;9574;47.282;9.640;2022-11-21T10:58:34;1.40;;;1.30;;
18883;SDS011;9574;47.282;9.640;2022-11-21T11:01:17;2.40;;;1.40;;
18883;SDS011;9574;47.282;9.640;2022-11-21T11:03:48;4.87;;;1.53;;
18883;SDS011;9574;47.282;9.640;2022-11-21T11:06:30;4.23;;;1.63;;
18883;SDS011;9574;47.282;9.640;2022-11-21T11:08:58;2.33;;;1.10;;
18883;SDS011;9574;47.282;9.640;2022-11-21T11:11:25;1.30;;;1.20;;
18883;SDS011;9574;47.282;9.640;2022-11-21T11:13:55;1.90;;;1.53;;
18883;SDS011;9574;47.282;9.640;2022-11-21T11:16:23;2.23;;;1.60;;
18883;SDS011;9574;47.282;9.640;2022-11-21T11:18:58;1.77;;;1.40;;
18883;SDS011;9574;47.282;9.640;2022-11-21T11:21:27;1.47;;;1.23;;
18883;SDS011;9574;47.282;9.640;2022-11-21T11:24:19;1.13;;;1.07;;
18883;SDS011;9574;47.282;9.640;2022-11-21T11:26:51;5.60;;;1.20;;
18883;SDS011;9574;47.282;9.640;2022-11-21T11:29:27;1.80;;;1.20;;
18883;SDS011;9574;47.282;9.640;2022-11-21T11:31:56;3.03;;;1.30;;
18883;SDS011;9574;47.282;9.640;2022-11-21T11:34:35;0.90;;;0.90;;
18883;SDS011;9574;47.282;9.640;2022-11-21T11:37:11;2.43;;;1.10;;
18883;SDS011;9574;47.282;9.640;2022-11-21T11:39:44;1.00;;;0.90;;
18883;SDS011;9574;47.282;9.640;2022-11-21T11:42:25;1.03;;;0.93;;
18883;SDS011;9574;47.282;9.640;2022-11-21T11:45:28;1.10;;;1.00;;
18883;SDS011;9574;47.282;9.640;2022-11-21T11:48:21;3.10;;;1.00;;
18883;SDS011;9574;47.282;9.640;2022-11-21T11:50:54;1.80;;;1.23;;
18883;SDS011;9574;47.282;9.640;2022-11-21T11:53:27;4.27;;;2.43;;
18883;SDS011;9574;47.282;9.640;2022-11-21T11:56:00;1.30;;;1.20;;
18883;SDS011;9574;47.282;9.640;2022-11-21T11:58:33;0.80;;;0.80;;
18883;SDS011;9574;47.282;9.640;2022-11-21T12:01:06;2.77;;;0.90;;
18883;SDS011;9574;47.282;9.640;2022-11-21T12:03:40;0.87;;;0.87;;
18883;SDS011;9574;47.282;9.640;2022-11-21T12:06:17;0.90;;;0.80;;
18883;SDS011;9574;47.282;9.640;2022-11-21T12:08:50;5.23;;;3.03;;
18883;SDS011;9574;47.282;9.640;2022-11-21T12:11:27;1.70;;;1.03;;
18883;SDS011;9574;47.282;9.640;2022-11-21T12:17:31;1.23;;;0.87;;
18883;SDS011;9574;47.282;9.640;2022-11-21T12:20:03;0.60;;;0.60;;
18883;SDS011;9574;47.282;9.640;2022-11-21T12:22:48;2.40;;;0.80;;
18883;SDS011;9574;47.282;9.640;2022-11-21T12:25:18;1.07;;;1.00;;
18883;SDS011;9574;47.282;9.640;2022-11-21T12:27:51;1.80;;;0.70;;
18883;SDS011;9574;47.282;9.640;2022-11-21T12:33:16;1.00;;;1.00;;
18883;SDS011;9574;47.282;9.640;2022-11-21T12:36:03;1.27;;;0.90;;
18883;SDS011;9574;47.282;9.640;2022-11-21T12:41:40;1.20;;;1.10;;
18883;SDS011;9574;47.282;9.640;2022-11-21T12:44:42;1.00;;;0.90;;
18883;SDS011;9574;47.282;9.640;2022-11-21T12:47:32;0.90;;;0.90;;
18883;SDS011;9574;47.282;9.640;2022-11-21T12:50:37;1.13;;;1.03;;
18883;SDS011;9574;47.282;9.640;2022-11-21T12:53:32;1.03;;;0.93;;
18883;SDS011;9574;47.282;9.640;2022-11-21T12:56:27;1.77;;;1.00;;
18883;SDS011;9574;47.282;9.640;2022-11-21T12:59:02;1.23;;;1.13;;
18883;SDS011;9574;47.282;9.640;2022-11-21T13:01:35;3.90;;;1.77;;
18883;SDS011;9574;47.282;9.640;2022-11-21T13:04:13;1.07;;;0.93;;
18883;SDS011;9574;47.282;9.640;2022-11-21T13:06:48;1.67;;;0.97;;
18883;SDS011;9574;47.282;9.640;2022-11-21T13:09:19;1.07;;;1.00;;
18883;SDS011;9574;47.282;9.640;2022-11-21T13:11:52;2.77;;;0.60;;
18883;SDS011;9574;47.282;9.640;2022-11-21T13:14:36;1.13;;;0.83;;
18883;SDS011;9574;47.282;9.640;2022-11-21T13:17:16;1.80;;;0.60;;
18883;SDS011;9574;47.282;9.640;2022-11-21T13:19:53;0.70;;;0.70;;
18883;SDS011;9574;47.282;9.640;2022-11-21T13:25:36;0.70;;;0.70;;
18883;SDS011;9574;47.282;9.640;2022-11-21T13:31:26;0.83;;;0.80;;
18883;SDS011;9574;47.282;9.640;2022-11-21T13:33:59;1.30;;;0.70;;
18883;SDS011;9574;47.282;9.640;2022-11-21T13:36:43;0.70;;;0.70;;
18883;SDS011;9574;47.282;9.640;2022-11-21T13:39:27;1.73;;;1.33;;
18883;SDS011;9574;47.282;9.640;2022-11-21T13:48:18;1.13;;;0.73;;
18883;SDS011;9574;47.282;9.640;2022-11-21T13:51:15;0.80;;;0.80;;
18883;SDS011;9574;47.282;9.640;2022-11-21T13:57:46;1.43;;;0.70;;
18883;SDS011;9574;47.282;9.640;2022-11-21T14:00:33;1.43;;;0.80;;
18883;SDS011;9574;47.282;9.640;2022-11-21T14:06:34;1.00;;;0.90;;
18883;SDS011;9574;47.282;9.640;2022-11-21T14:09:22;1.10;;;0.63;;
18883;SDS011;9574;47.282;9.640;2022-11-21T14:11:53;0.97;;;0.60;;
18883;SDS011;9574;47.282;9.640;2022-11-21T14:14:26;1.03;;;0.80;;
18883;SDS011;9574;47.282;9.640;2022-11-21T14:17:01;1.00;;;0.90;;
18883;SDS011;9574;47.282;9.640;2022-11-21T14:19:57;0.90;;;0.90;;
18883;SDS011;9574;47.282;9.640;2022-11-21T14:22:27;3.73;;;1.10;;
18883;SDS011;9574;47.282;9.640;2022-11-21T14:25:07;1.70;;;1.23;;
18883;SDS011;9574;47.282;9.640;2022-11-21T14:27:40;1.47;;;0.97;;
18883;SDS011;9574;47.282;9.640;2022-11-21T14:30:27;2.20;;;0.90;;
18883;SDS011;9574;47.282;9.640;2022-11-21T14:36:01;3.00;;;1.40;;
18883;SDS011;9574;47.282;9.640;2022-11-21T14:38:33;2.90;;;2.13;;
18883;SDS011;9574;47.282;9.640;2022-11-21T14:41:21;2.30;;;1.57;;
18883;SDS011;9574;47.282;9.640;2022-11-21T14:44:02;3.70;;;1.50;;
18883;SDS011;9574;47.282;9.640;2022-11-21T14:46:31;2.70;;;1.20;;
18883;SDS011;9574;47.282;9.640;2022-11-21T14:49:18;4.77;;;1.23;;
18883;SDS011;9574;47.282;9.640;2022-11-21T14:51:50;3.37;;;1.77;;
18883;SDS011;9574;47.282;9.640;2022-11-21T14:54:25;1.20;;;1.10;;
18883;SDS011;9574;47.282;9.640;2022-11-21T14:56:57;2.40;;;1.30;;
18883;SDS011;9574;47.282;9.640;2022-11-21T14:59:26;2.03;;;1.00;;
18883;SDS011;9574;47.282;9.640;2022-11-21T15:01:57;0.93;;;0.70;;
18883;SDS011;9574;47.282;9.640;2022-11-21T15:04:29;1.33;;;1.10;;
18883;SDS011;9574;47.282;9.640;2022-11-21T15:06:58;1.47;;;1.03;;
18883;SDS011;9574;47.282;9.640;2022-11-21T15:09:27;0.80;;;0.80;;
18883;SDS011;9574;47.282;9.640;2022-11-21T15:11:59;1.93;;;1.20;;
18883;SDS011;9574;47.282;9.640;2022-11-21T15:14:30;2.07;;;1.27;;
18883;SDS011;9574;47.282;9.640;2022-11-21T15:17:03;2.13;;;0.97;;
18883;SDS011;9574;47.282;9.640;2022-11-21T15:19:35;5.77;;;1.50;;
18883;SDS011;9574;47.282;9.640;2022-11-21T15:22:02;2.27;;;1.63;;
18883;SDS011;9574;47.282;9.640;2022-11-21T15:24:31;2.70;;;1.17;;
18883;SDS011;9574;47.282;9.640;2022-11-21T15:30:18;1.73;;;1.33;;
18883;SDS011;9574;47.282;9.640;2022-11-21T15:33:07;2.20;;;1.30;;
18883;SDS011;9574;47.282;9.640;2022-11-21T15:35:53;1.13;;;1.03;;
18883;SDS011;9574;47.282;9.640;2022-11-21T15:38:24;1.30;;;1.10;;
18883;SDS011;9574;47.282;9.640;2022-11-21T15:41:02;2.97;;;1.20;;
18883;SDS011;9574;47.282;9.640;2022-11-21T15:43:35;0.93;;;0.90;;
18883;SDS011;9574;47.282;9.640;2022-11-21T15:46:14;4.30;;;1.20;;
18883;SDS011;9574;47.282;9.640;2022-11-21T15:48:44;0.90;;;0.90;;
18883;SDS011;9574;47.282;9.640;2022-11-21T15:51:14;4.60;;;1.20;;
18883;SDS011;9574;47.282;9.640;2022-11-21T15:53:43;1.70;;;1.20;;
18883;SDS011;9574;47.282;9.640;2022-11-21T15:56:11;1.30;;;1.10;;
18883;SDS011;9574;47.282;9.640;2022-11-21T15:58:42;1.33;;;1.20;;
18883;SDS011;9574;47.282;9.640;2022-11-21T16:01:13;2.53;;;1.40;;
18883;SDS011;9574;47.282;9.640;2022-11-21T16:03:41;2.30;;;1.30;;
18883;SDS011;9574;47.282;9.640;2022-11-21T16:06:09;1.53;;;1.33;;
18883;SDS011;9574;47.282;9.640;2022-11-21T16:08:40;2.40;;;1.53;;
18883;SDS011;9574;47.282;9.640;2022-11-21T16:11:10;2.17;;;1.60;;
18883;SDS011;9574;47.282;9.640;2022-11-21T16:13:46;3.07;;;1.47;;